TimeHST,TemperatureF,Dew PointF,Humidity,Sea Level PressureIn,VisibilityMPH,Wind Direction,Wind SpeedMPH,Gust SpeedMPH,PrecipitationIn,Events,Conditions,WindDirDegrees,DateUTC
12:54 AM,70.0,63.0,78,30.10,10.0,ENE,11.5,24.2,N/A,,Mostly Cloudy,60,2013-02-05 10:54:00
1:54 AM,70.0,61.0,73,30.10,10.0,ENE,13.8,21.9,N/A,,Mostly Cloudy,60,2013-02-05 11:54:00
2:54 AM,68.0,62.1,81,30.09,10.0,East,4.6,-,0.00,Rain,Light Rain,80,2013-02-05 12:54:00
3:54 AM,69.1,61.0,75,30.08,10.0,ENE,11.5,-,0.00,,Overcast,60,2013-02-05 13:54:00
4:54 AM,66.0,60.1,81,30.09,10.0,East,9.2,-,N/A,,Clear,80,2013-02-05 14:54:00
5:54 AM,66.0,60.1,81,30.08,10.0,NNE,5.8,-,N/A,,Clear,30,2013-02-05 15:54:00
6:54 AM,68.0,61.0,78,30.10,10.0,NE,11.5,-,N/A,,Scattered Clouds,40,2013-02-05 16:54:00
7:54 AM,70.0,60.1,71,30.11,10.0,NE,13.8,-,N/A,,Clear,50,2013-02-05 17:54:00
8:54 AM,72.0,61.0,68,30.12,10.0,NE,9.2,19.6,N/A,,Scattered Clouds,50,2013-02-05 18:54:00
9:54 AM,73.9,61.0,64,30.12,10.0,ENE,15.0,24.2,N/A,,Scattered Clouds,70,2013-02-05 19:54:00
10:54 AM,75.0,62.1,64,30.11,10.0,NE,19.6,27.6,N/A,,Scattered Clouds,50,2013-02-05 20:54:00
11:54 AM,77.0,61.0,58,30.09,10.0,East,15.0,26.5,N/A,,Scattered Clouds,80,2013-02-05 21:54:00
12:54 PM,75.0,61.0,62,30.06,10.0,ENE,20.7,29.9,0.00,,Scattered Clouds,70,2013-02-05 22:54:00
1:54 PM,77.0,59.0,54,30.03,10.0,ENE,15.0,32.2,N/A,,Scattered Clouds,70,2013-02-05 23:54:00
2:54 PM,77.0,57.9,52,30.01,10.0,East,18.4,31.1,N/A,,Scattered Clouds,80,2013-02-06 00:54:00
3:54 PM,75.9,62.1,62,30.02,10.0,ENE,21.9,29.9,N/A,,Scattered Clouds,60,2013-02-06 01:54:00
4:54 PM,75.0,63.0,66,30.04,10.0,NE,17.3,25.3,N/A,,Scattered Clouds,50,2013-02-06 02:54:00
5:54 PM,72.0,62.1,71,30.05,10.0,ENE,17.3,24.2,N/A,,Scattered Clouds,60,2013-02-06 03:54:00
6:54 PM,71.1,61.0,70,30.06,10.0,ENE,13.8,-,N/A,,Scattered Clouds,60,2013-02-06 04:54:00
7:54 PM,69.1,60.1,73,30.09,10.0,ENE,12.7,-,N/A,,Clear,60,2013-02-06 05:54:00
8:54 PM,70.0,61.0,73,30.12,10.0,NE,12.7,-,N/A,,Scattered Clouds,40,2013-02-06 06:54:00
9:54 PM,68.0,64.4,88,30.11,10.0,North,9.2,-,N/A,,Scattered Clouds,10,2013-02-06 07:54:00
10:54 PM,69.1,64.9,87,30.11,10.0,NE,10.4,-,N/A,,Partly Cloudy,50,2013-02-06 08:54:00
11:30 PM,69.8,64.4,83,30.09,4.0,ENE,6.9,-,0.03,Rain,Heavy Rain,70,2013-02-06 09:30:00
11:47 PM,68.0,64.4,88,30.09,9.0,Calm,Calm,-,0.08,Rain,Light Rain,0,2013-02-06 09:47:00
11:54 PM,68.0,64.0,87,30.10,10.0,Calm,Calm,-,0.08,,Overcast,0,2013-02-06 09:54:00